createdAt,value
2023-12-22T00:00:56.486Z,14.52
2023-12-22T00:03:26.279Z,14.52
2023-12-22T00:05:55.618Z,14.54
2023-12-22T00:08:24.012Z,14.54
2023-12-22T00:10:53.627Z,14.53
2023-12-22T00:13:23.105Z,14.52
2023-12-22T00:15:52.416Z,14.52
2023-12-22T00:18:21.496Z,14.52
2023-12-22T00:20:50.928Z,14.52
2023-12-22T00:23:21.809Z,14.53
2023-12-22T00:25:50.892Z,14.51
2023-12-22T00:28:20.528Z,14.51
2023-12-22T00:30:50.022Z,14.51
2023-12-22T00:33:19.485Z,14.51
2023-12-22T00:35:48.472Z,14.50
2023-12-22T00:38:17.672Z,14.49
2023-12-22T00:40:45.728Z,14.50
2023-12-22T00:43:14.582Z,14.50
2023-12-22T00:45:43.915Z,14.50
2023-12-22T00:48:13.368Z,14.50
2023-12-22T00:50:42.954Z,14.50
2023-12-22T00:53:12.273Z,14.50
2023-12-22T00:55:41.014Z,14.48
2023-12-22T00:58:09.867Z,14.48
2023-12-22T01:00:39.247Z,14.48
2023-12-22T01:03:08.592Z,14.48
2023-12-22T01:05:37.653Z,14.47
2023-12-22T01:08:07.137Z,14.46
2023-12-22T01:10:36.467Z,14.47
2023-12-22T01:13:05.865Z,14.47
2023-12-22T01:15:35.290Z,14.47
2023-12-22T01:18:05.412Z,14.45
2023-12-22T01:20:34.335Z,14.45
2023-12-22T01:23:03.225Z,14.46
2023-12-22T01:25:32.625Z,14.45
2023-12-22T01:28:04.588Z,14.45
2023-12-22T01:30:35.423Z,14.45
2023-12-22T01:33:04.935Z,14.43
2023-12-22T01:35:33.972Z,14.43
2023-12-22T01:38:02.937Z,14.43
2023-12-22T01:40:31.845Z,14.45
2023-12-22T01:43:01.193Z,14.44
2023-12-22T01:45:30.589Z,14.43
2023-12-22T01:48:00.061Z,14.44
2023-12-22T01:50:29.111Z,14.43
2023-12-22T01:52:58.338Z,14.43
2023-12-22T01:55:26.742Z,14.43
2023-12-22T01:57:56.259Z,14.43
2023-12-22T02:00:25.826Z,14.43
2023-12-22T02:02:55.196Z,14.43
2023-12-22T02:05:24.473Z,14.43
2023-12-22T02:07:53.538Z,14.42
2023-12-22T02:10:23.002Z,14.42
2023-12-22T02:12:51.835Z,14.42
2023-12-22T02:15:21.200Z,14.42
2023-12-22T02:17:51.133Z,14.43
2023-12-22T02:20:20.786Z,14.41
2023-12-22T02:22:50.117Z,14.41
2023-12-22T02:25:19.409Z,14.41
2023-12-22T02:27:47.815Z,14.41
2023-12-22T02:30:16.891Z,14.41
2023-12-22T02:32:46.392Z,14.42
2023-12-22T02:35:15.880Z,14.42
2023-12-22T02:37:45.288Z,14.41
2023-12-22T02:40:14.748Z,14.41
2023-12-22T02:42:44.169Z,14.41
2023-12-22T02:45:13.575Z,14.40
2023-12-22T02:47:42.998Z,14.41
2023-12-22T02:50:12.081Z,14.40
2023-12-22T02:52:40.367Z,14.40
2023-12-22T02:55:09.237Z,14.41
2023-12-22T02:57:38.646Z,14.40
2023-12-22T03:00:08.080Z,14.41
2023-12-22T03:02:37.558Z,14.40
2023-12-22T03:05:07.174Z,14.40
2023-12-22T03:07:36.308Z,14.39
2023-12-22T03:10:05.237Z,14.40
2023-12-22T03:12:34.593Z,14.39
2023-12-22T03:15:03.792Z,14.40
2023-12-22T03:17:32.770Z,14.39
2023-12-22T03:20:02.330Z,14.39
2023-12-22T03:22:31.376Z,14.39
2023-12-22T03:25:00.911Z,14.38
2023-12-22T03:27:29.878Z,14.39
2023-12-22T03:29:59.142Z,14.38
2023-12-22T03:32:27.991Z,14.39
2023-12-22T03:34:57.671Z,14.37
2023-12-22T03:37:27.213Z,14.37
2023-12-22T03:39:56.793Z,14.38
2023-12-22T03:42:25.475Z,14.36
2023-12-22T03:44:53.706Z,14.37
2023-12-22T03:47:22.791Z,14.36
2023-12-22T03:49:51.695Z,14.37
2023-12-22T03:52:21.262Z,14.37
2023-12-22T03:54:50.424Z,14.36
2023-12-22T03:57:20.117Z,14.37
2023-12-22T03:59:49.571Z,14.35
2023-12-22T04:02:18.309Z,14.35
2023-12-22T04:04:47.021Z,14.35
2023-12-22T04:07:16.448Z,14.34
2023-12-22T04:09:45.919Z,14.34
2023-12-22T04:12:15.236Z,14.34
2023-12-22T04:14:44.091Z,14.34
2023-12-22T04:17:12.966Z,14.34
2023-12-22T04:19:42.551Z,14.33
2023-12-22T04:22:11.970Z,14.34
2023-12-22T04:24:40.908Z,14.34
2023-12-22T04:27:09.787Z,14.34
2023-12-22T04:29:38.747Z,14.34
2023-12-22T04:32:07.521Z,14.33
2023-12-22T04:34:37.039Z,14.33
2023-12-22T04:37:06.438Z,14.33
2023-12-22T04:39:35.307Z,14.33
2023-12-22T04:42:04.545Z,14.32
2023-12-22T04:44:33.885Z,14.33
2023-12-22T04:47:02.771Z,14.33
2023-12-22T04:49:31.643Z,14.33
2023-12-22T04:52:02.529Z,14.32
2023-12-22T04:54:31.957Z,14.33
2023-12-22T04:57:00.842Z,14.33
2023-12-22T04:59:29.609Z,14.34
2023-12-22T05:01:58.603Z,14.33
2023-12-22T05:04:28.152Z,14.33
2023-12-22T05:06:57.558Z,14.34
2023-12-22T05:09:26.707Z,14.34
2023-12-22T05:11:55.066Z,14.33
2023-12-22T05:14:24.455Z,14.33
2023-12-22T05:16:53.307Z,14.33
2023-12-22T05:19:22.299Z,14.33
2023-12-22T05:21:51.837Z,14.34
2023-12-22T05:24:21.274Z,14.34
2023-12-22T05:26:50.230Z,14.34
2023-12-22T05:29:19.640Z,14.35
2023-12-22T05:31:48.979Z,14.34
2023-12-22T05:34:18.004Z,14.36
2023-12-22T05:36:47.113Z,14.35
2023-12-22T05:39:15.997Z,14.35
2023-12-22T05:41:45.381Z,14.35
2023-12-22T05:44:14.272Z,14.35
2023-12-22T05:46:43.704Z,14.35
2023-12-22T05:49:12.782Z,14.35
2023-12-22T05:51:42.292Z,14.34
2023-12-22T05:54:11.720Z,14.35
2023-12-22T05:56:41.000Z,14.35
2023-12-22T05:59:10.337Z,14.35
2023-12-22T06:01:39.327Z,14.36
2023-12-22T06:04:08.921Z,14.35
2023-12-22T06:06:38.359Z,14.35
2023-12-22T06:09:07.797Z,14.36
2023-12-22T06:11:37.264Z,14.36
2023-12-22T06:14:06.855Z,14.36
2023-12-22T06:16:35.901Z,14.36
2023-12-22T06:19:05.451Z,14.36
2023-12-22T06:21:35.000Z,14.36
2023-12-22T06:24:04.507Z,14.35
2023-12-22T06:26:34.668Z,14.36
2023-12-22T06:29:04.262Z,14.37
2023-12-22T06:31:33.789Z,14.36
2023-12-22T06:34:02.819Z,14.37
2023-12-22T06:36:32.241Z,14.37
2023-12-22T06:39:01.632Z,14.37
2023-12-22T06:41:31.057Z,14.39
2023-12-22T06:44:00.231Z,14.37
2023-12-22T06:46:29.355Z,14.38
2023-12-22T06:48:58.983Z,14.39
2023-12-22T06:51:28.516Z,14.39
2023-12-22T06:53:57.471Z,14.39
2023-12-22T06:56:26.995Z,14.39
2023-12-22T06:58:56.396Z,14.40
2023-12-22T07:01:25.199Z,14.40
2023-12-22T07:03:53.982Z,14.40
2023-12-22T07:06:23.540Z,14.40
2023-12-22T07:08:52.841Z,14.40
2023-12-22T07:11:38.274Z,14.41
2023-12-22T07:14:07.205Z,14.41
2023-12-22T07:16:35.823Z,14.41
2023-12-22T07:19:04.339Z,14.40
2023-12-22T07:21:32.770Z,14.41
2023-12-22T07:24:01.304Z,14.42
2023-12-22T07:26:31.521Z,14.43
2023-12-22T07:29:03.034Z,14.42
2023-12-22T07:31:34.403Z,14.42
2023-12-22T07:34:09.429Z,14.43
2023-12-22T07:36:48.141Z,14.43
2023-12-22T07:39:26.549Z,14.43
2023-12-22T07:41:57.449Z,14.44
2023-12-22T07:44:26.661Z,14.44
2023-12-22T07:46:56.770Z,14.45
2023-12-22T07:49:26.582Z,14.44
2023-12-22T07:51:55.076Z,14.45
2023-12-22T07:54:24.671Z,14.46
2023-12-22T07:56:54.594Z,14.46
2023-12-22T07:59:30.323Z,14.47
2023-12-22T08:02:01.323Z,14.47
2023-12-22T08:04:31.129Z,14.46
2023-12-22T08:07:00.028Z,14.48
2023-12-22T08:09:29.474Z,14.48
2023-12-22T08:11:58.922Z,14.48
2023-12-22T08:14:28.429Z,14.49
2023-12-22T08:16:57.347Z,14.48
2023-12-22T08:19:27.942Z,14.49
2023-12-22T08:22:00.532Z,14.50
2023-12-22T08:24:32.371Z,14.51
2023-12-22T08:27:01.530Z,14.54
2023-12-22T08:29:30.496Z,14.55
2023-12-22T08:31:59.935Z,14.55
2023-12-22T08:34:29.045Z,14.55
2023-12-22T08:36:57.435Z,14.55
2023-12-22T08:39:26.396Z,14.57
2023-12-22T08:41:54.804Z,14.58
2023-12-22T08:44:24.319Z,14.58
2023-12-22T08:46:54.044Z,14.60
2023-12-22T08:49:23.052Z,14.61
2023-12-22T08:51:52.519Z,14.63
2023-12-22T08:54:22.284Z,14.67
2023-12-22T08:56:51.664Z,14.68
2023-12-22T08:59:21.091Z,14.70
2023-12-22T09:01:49.990Z,14.71
2023-12-22T09:04:19.372Z,14.74
2023-12-22T09:06:48.232Z,14.76
2023-12-22T09:09:21.326Z,14.77
2023-12-22T09:11:50.665Z,14.77
2023-12-22T09:14:19.493Z,14.77
2023-12-22T09:16:48.985Z,14.77
2023-12-22T09:19:17.656Z,14.77
2023-12-22T09:21:46.412Z,14.76
2023-12-22T09:24:15.836Z,14.77
2023-12-22T09:26:45.273Z,14.75
2023-12-22T09:29:14.323Z,14.74
2023-12-22T09:31:43.668Z,14.73
2023-12-22T09:34:13.135Z,14.73
2023-12-22T09:36:42.657Z,14.71
2023-12-22T09:39:12.125Z,14.71
2023-12-22T09:41:41.599Z,14.70
2023-12-22T09:44:11.050Z,14.69
2023-12-22T09:46:40.097Z,14.68
2023-12-22T09:49:09.605Z,14.68
2023-12-22T09:51:38.625Z,14.67
2023-12-22T09:54:07.642Z,14.66
2023-12-22T09:56:36.485Z,14.65
2023-12-22T09:59:05.758Z,14.66
2023-12-22T10:01:35.173Z,14.67
2023-12-22T10:04:04.337Z,14.66
2023-12-22T10:06:33.698Z,14.66
2023-12-22T10:09:03.488Z,14.66
2023-12-22T10:11:32.363Z,14.68
2023-12-22T10:14:01.708Z,14.69
2023-12-22T10:16:30.702Z,14.69
2023-12-22T10:19:00.117Z,14.70
2023-12-22T10:21:29.444Z,14.73
2023-12-22T10:23:59.438Z,14.73
2023-12-22T10:26:28.736Z,14.74
2023-12-22T10:28:58.494Z,14.76
2023-12-22T10:31:27.447Z,14.78
2023-12-22T10:33:56.875Z,14.80
2023-12-22T10:36:25.849Z,14.79
2023-12-22T10:38:54.917Z,14.79
2023-12-22T10:41:23.837Z,14.78
2023-12-22T10:43:53.157Z,14.77
2023-12-22T10:46:23.016Z,14.77
2023-12-22T10:48:52.470Z,14.78
2023-12-22T10:51:21.912Z,14.78
2023-12-22T10:53:50.827Z,14.78
2023-12-22T10:56:20.242Z,14.79
2023-12-22T10:58:49.646Z,14.80
2023-12-22T11:01:19.067Z,14.81
2023-12-22T11:03:48.664Z,14.86
2023-12-22T11:06:18.217Z,14.91
2023-12-22T11:08:47.214Z,14.92
2023-12-22T11:11:16.748Z,14.94
2023-12-22T11:13:46.159Z,14.96
2023-12-22T11:16:15.032Z,15.00
2023-12-22T11:18:43.933Z,15.01
2023-12-22T11:21:13.247Z,15.02
2023-12-22T11:23:42.590Z,15.07
2023-12-22T11:26:12.291Z,15.13
2023-12-22T11:28:41.810Z,15.17
2023-12-22T11:31:11.214Z,15.22
2023-12-22T11:33:41.584Z,15.26
2023-12-22T11:36:16.829Z,15.27
2023-12-22T11:38:46.201Z,15.25
2023-12-22T11:41:15.680Z,15.23
2023-12-22T11:43:45.131Z,15.19
2023-12-22T11:46:14.707Z,15.14
2023-12-22T11:48:43.766Z,15.13
2023-12-22T11:51:13.132Z,15.13
2023-12-22T11:53:41.956Z,15.14
2023-12-22T11:56:11.138Z,15.18
2023-12-22T11:58:39.968Z,15.21
2023-12-22T12:01:09.385Z,15.23
2023-12-22T12:03:38.377Z,15.23
2023-12-22T12:06:07.515Z,15.23
2023-12-22T12:08:36.341Z,15.24
2023-12-22T12:11:05.904Z,15.22
2023-12-22T12:13:35.372Z,15.19
2023-12-22T12:16:04.844Z,15.17
2023-12-22T12:18:34.242Z,15.18
2023-12-22T12:21:03.611Z,15.16
2023-12-22T12:23:32.443Z,15.16
2023-12-22T12:26:01.807Z,15.15
2023-12-22T12:28:30.386Z,15.14
2023-12-22T12:30:58.721Z,15.17
2023-12-22T12:33:28.385Z,15.16
2023-12-22T12:35:57.616Z,15.16
2023-12-22T12:38:27.318Z,15.15
2023-12-22T12:40:56.807Z,15.14
2023-12-22T12:43:26.241Z,15.16
2023-12-22T12:45:55.316Z,15.19
2023-12-22T12:48:24.373Z,15.24
2023-12-22T12:50:53.450Z,15.26
2023-12-22T12:53:22.519Z,15.26
2023-12-22T12:55:51.892Z,15.27
2023-12-22T12:58:21.381Z,15.30
2023-12-22T13:00:50.225Z,15.35
2023-12-22T13:03:19.205Z,15.41
2023-12-22T13:05:48.981Z,15.46
2023-12-22T13:08:19.103Z,15.48
2023-12-22T13:10:48.159Z,15.47
2023-12-22T13:13:17.690Z,15.46
2023-12-22T13:15:47.173Z,15.44
2023-12-22T13:18:16.236Z,15.42
2023-12-22T13:20:45.200Z,15.38
2023-12-22T13:23:14.558Z,15.34
2023-12-22T13:25:43.548Z,15.32
2023-12-22T13:28:13.116Z,15.30
2023-12-22T13:30:42.682Z,15.28
2023-12-22T13:33:12.052Z,15.26
2023-12-22T13:35:43.208Z,15.25
2023-12-22T13:38:13.003Z,15.23
2023-12-22T13:40:42.715Z,15.22
2023-12-22T13:43:12.310Z,15.21
2023-12-22T13:45:41.374Z,15.21
2023-12-22T13:48:10.361Z,15.22
2023-12-22T13:50:39.900Z,15.23
2023-12-22T13:53:09.018Z,15.25
2023-12-22T13:55:37.899Z,15.24
2023-12-22T13:58:07.353Z,15.21
2023-12-22T14:00:36.841Z,15.19
2023-12-22T14:03:05.801Z,15.17
2023-12-22T14:05:35.801Z,15.14
2023-12-22T14:08:04.649Z,15.12
2023-12-22T14:10:33.378Z,15.11
2023-12-22T14:13:02.247Z,15.09
2023-12-22T14:15:38.009Z,15.07
2023-12-22T14:18:13.944Z,15.05
2023-12-22T14:20:43.165Z,15.02
2023-12-22T14:23:13.517Z,15.02
2023-12-22T14:25:44.141Z,15.00
2023-12-22T14:28:13.187Z,15.00
2023-12-22T14:30:42.210Z,14.98
2023-12-22T14:33:11.773Z,14.98
2023-12-22T14:35:40.850Z,14.93
2023-12-22T14:38:09.142Z,14.95
2023-12-22T14:40:38.141Z,14.95
2023-12-22T14:43:07.732Z,14.94
2023-12-22T14:45:36.824Z,14.93
2023-12-22T14:48:05.995Z,14.92
2023-12-22T14:50:35.651Z,14.90
2023-12-22T14:53:04.810Z,14.89
2023-12-22T14:55:33.606Z,14.89
2023-12-22T14:58:03.293Z,14.88
2023-12-22T15:00:32.256Z,14.88
2023-12-22T15:03:01.363Z,14.87
2023-12-22T15:05:32.928Z,14.86
2023-12-22T15:08:04.783Z,14.84
2023-12-22T15:10:34.293Z,14.82
2023-12-22T15:13:03.345Z,14.82
2023-12-22T15:15:32.118Z,14.81
2023-12-22T15:18:00.934Z,14.82
2023-12-22T15:20:29.890Z,14.81
2023-12-22T15:22:59.409Z,14.80
2023-12-22T15:25:28.743Z,14.79
2023-12-22T15:27:58.164Z,14.79
2023-12-22T15:30:27.640Z,14.79
2023-12-22T15:32:57.132Z,14.78
2023-12-22T15:35:26.608Z,14.79
2023-12-22T15:37:55.658Z,14.78
2023-12-22T15:40:24.391Z,14.78
2023-12-22T15:42:53.898Z,14.77
2023-12-22T15:45:23.226Z,14.77
2023-12-22T15:47:52.638Z,14.76
2023-12-22T15:50:22.201Z,14.76
2023-12-22T15:52:51.928Z,14.76
2023-12-22T15:55:21.594Z,14.75
2023-12-22T15:57:50.963Z,14.76
2023-12-22T16:00:20.337Z,14.75
2023-12-22T16:02:50.077Z,14.75
2023-12-22T16:05:19.322Z,14.74
2023-12-22T16:07:48.024Z,14.72
2023-12-22T16:10:17.433Z,14.73
2023-12-22T16:12:47.129Z,14.72
2023-12-22T16:15:16.741Z,14.73
2023-12-22T16:17:46.143Z,14.73
2023-12-22T16:20:14.859Z,14.71
2023-12-22T16:22:44.566Z,14.73
2023-12-22T16:25:13.989Z,14.74
2023-12-22T16:27:43.427Z,14.73
2023-12-22T16:30:12.891Z,14.73
2023-12-22T16:32:42.514Z,14.73
2023-12-22T16:35:12.071Z,14.73
2023-12-22T16:37:43.160Z,14.72
2023-12-22T16:40:12.064Z,14.71
2023-12-22T16:42:40.357Z,14.72
2023-12-22T16:45:09.936Z,14.72
2023-12-22T16:47:38.948Z,14.72
2023-12-22T16:50:07.962Z,14.73
2023-12-22T16:52:37.554Z,14.72
2023-12-22T16:55:06.971Z,14.72
2023-12-22T16:57:36.380Z,14.72
2023-12-22T17:00:05.796Z,14.68
2023-12-22T17:02:35.377Z,14.72
2023-12-22T17:05:04.681Z,14.72
2023-12-22T17:07:36.746Z,14.71
2023-12-22T17:10:08.525Z,14.72
2023-12-22T17:12:37.760Z,14.74
2023-12-22T17:15:07.282Z,14.72
2023-12-22T17:17:36.220Z,14.72
2023-12-22T17:20:05.246Z,14.72
2023-12-22T17:22:34.724Z,14.72
2023-12-22T17:25:03.916Z,14.73
2023-12-22T17:27:32.693Z,14.72
2023-12-22T17:30:01.544Z,14.72
2023-12-22T17:32:30.942Z,14.71
2023-12-22T17:35:04.564Z,14.71
2023-12-22T17:37:33.573Z,14.72
2023-12-22T17:40:02.186Z,14.71
2023-12-22T17:42:30.577Z,14.71
2023-12-22T17:44:59.494Z,14.70
2023-12-22T17:47:28.484Z,14.71
2023-12-22T17:49:57.316Z,14.71
2023-12-22T17:52:26.788Z,14.71
2023-12-22T17:54:55.643Z,14.72
2023-12-22T17:57:25.142Z,14.71
2023-12-22T17:59:54.634Z,14.70
2023-12-22T18:02:29.751Z,14.72
2023-12-22T18:04:59.102Z,14.71
2023-12-22T18:07:28.495Z,14.71
2023-12-22T18:09:57.893Z,14.71
2023-12-22T18:12:27.385Z,14.71
2023-12-22T18:14:56.423Z,14.72
2023-12-22T18:17:25.344Z,14.71
2023-12-22T18:19:54.275Z,14.71
2023-12-22T18:22:23.325Z,14.72
2023-12-22T18:24:52.780Z,14.72
2023-12-22T18:27:22.273Z,14.72
2023-12-22T18:29:51.750Z,14.72
2023-12-22T18:32:21.103Z,14.72
2023-12-22T18:34:50.077Z,14.71
2023-12-22T18:37:19.397Z,14.71
2023-12-22T18:39:48.604Z,14.71
2023-12-22T18:42:16.951Z,14.70
2023-12-22T18:44:45.941Z,14.70
2023-12-22T18:47:15.526Z,14.69
2023-12-22T18:49:44.900Z,14.70
2023-12-22T18:52:13.746Z,14.69
2023-12-22T18:54:43.149Z,14.69
2023-12-22T18:57:12.219Z,14.67
2023-12-22T18:59:41.217Z,14.68
2023-12-22T19:02:31.042Z,14.67
2023-12-22T19:04:58.699Z,14.67
2023-12-22T19:07:27.682Z,14.67
2023-12-22T19:09:56.736Z,14.66
2023-12-22T19:12:25.495Z,14.65
2023-12-22T19:14:54.861Z,14.66
2023-12-22T19:17:24.876Z,14.66
2023-12-22T19:19:54.372Z,14.66
2023-12-22T19:22:25.426Z,14.66
2023-12-22T19:24:55.037Z,14.66
2023-12-22T19:27:24.453Z,14.64
2023-12-22T19:29:53.803Z,14.65
2023-12-22T19:32:23.349Z,14.64
2023-12-22T19:34:52.455Z,14.64
2023-12-22T19:37:21.495Z,14.64
2023-12-22T19:39:50.377Z,14.64
2023-12-22T19:42:19.764Z,14.62
2023-12-22T19:44:49.096Z,14.63
2023-12-22T19:47:18.590Z,14.63
2023-12-22T19:49:48.155Z,14.62
2023-12-22T19:52:17.651Z,14.62
2023-12-22T19:54:47.025Z,14.63
2023-12-22T19:57:15.928Z,14.62
2023-12-22T19:59:45.598Z,14.62
2023-12-22T20:02:14.738Z,14.61
2023-12-22T20:04:42.994Z,14.61
2023-12-22T20:07:11.557Z,14.60
2023-12-22T20:09:40.476Z,14.61
2023-12-22T20:12:09.532Z,14.60
2023-12-22T20:14:38.965Z,14.60
2023-12-22T20:17:08.424Z,14.59
2023-12-22T20:19:37.273Z,14.58
2023-12-22T20:22:06.177Z,14.59
2023-12-22T20:24:35.698Z,14.59
2023-12-22T20:27:05.157Z,14.58
2023-12-22T20:29:34.457Z,14.58
2023-12-22T20:32:02.814Z,14.58
2023-12-22T20:34:32.161Z,14.59
2023-12-22T20:37:01.619Z,14.58
2023-12-22T20:39:31.068Z,14.57
2023-12-22T20:42:00.432Z,14.57
2023-12-22T20:44:29.407Z,14.57
2023-12-22T20:46:58.738Z,14.57
2023-12-22T20:49:27.965Z,14.56
2023-12-22T20:51:57.066Z,14.57
2023-12-22T20:54:25.869Z,14.56
2023-12-22T20:56:54.759Z,14.56
2023-12-22T20:59:24.199Z,14.55
2023-12-22T21:01:53.568Z,14.55
2023-12-22T21:04:22.882Z,14.55
2023-12-22T21:06:52.157Z,14.53
2023-12-22T21:09:20.702Z,14.54
2023-12-22T21:11:49.342Z,14.53
2023-12-22T21:14:18.772Z,14.53
2023-12-22T21:16:48.097Z,14.53
2023-12-22T21:19:17.783Z,14.54
2023-12-22T21:21:47.384Z,14.54
2023-12-22T21:24:16.755Z,14.52
2023-12-22T21:26:46.900Z,14.53
2023-12-22T21:29:16.115Z,14.53
2023-12-22T21:31:45.586Z,14.52
2023-12-22T21:34:14.647Z,14.52
2023-12-22T21:36:44.155Z,14.52
2023-12-22T21:39:13.696Z,14.51
2023-12-22T21:41:42.607Z,14.51
2023-12-22T21:44:12.140Z,14.51
2023-12-22T21:46:41.713Z,14.51
2023-12-22T21:49:11.262Z,14.50
2023-12-22T21:51:40.267Z,14.51
2023-12-22T21:54:08.913Z,14.50
2023-12-22T21:56:37.146Z,14.50
2023-12-22T21:59:06.770Z,14.50
2023-12-22T22:01:35.862Z,14.48
2023-12-22T22:04:05.348Z,14.49
2023-12-22T22:06:34.707Z,14.49
2023-12-22T22:09:03.610Z,14.48
2023-12-22T22:11:32.895Z,14.48
2023-12-22T22:14:04.673Z,14.49
2023-12-22T22:16:35.603Z,14.47
2023-12-22T22:19:05.169Z,14.49
2023-12-22T22:21:34.128Z,14.49
2023-12-22T22:24:03.232Z,14.47
2023-12-22T22:26:31.799Z,14.48
2023-12-22T22:29:00.061Z,14.48
2023-12-22T22:31:28.578Z,14.48
2023-12-22T22:33:56.991Z,14.47
2023-12-22T22:36:25.785Z,14.47
2023-12-22T22:38:54.868Z,14.48
2023-12-22T22:41:24.408Z,14.47
2023-12-22T22:43:53.630Z,14.47
2023-12-22T22:46:22.384Z,14.46
2023-12-22T22:48:51.864Z,14.47
2023-12-22T22:51:20.809Z,14.47
2023-12-22T22:53:49.676Z,14.47
2023-12-22T22:56:19.051Z,14.46
2023-12-22T22:58:48.688Z,14.45
2023-12-22T23:01:17.896Z,14.45
2023-12-22T23:03:47.400Z,14.44
2023-12-22T23:06:16.956Z,14.45
2023-12-22T23:08:46.313Z,14.43
2023-12-22T23:11:15.818Z,14.44
2023-12-22T23:13:45.404Z,14.43
2023-12-22T23:16:14.889Z,14.43
2023-12-22T23:18:44.656Z,14.43
2023-12-22T23:21:14.143Z,14.43
2023-12-22T23:23:43.505Z,14.43
2023-12-22T23:26:12.754Z,14.42
2023-12-22T23:28:41.664Z,14.42
2023-12-22T23:31:11.040Z,14.42
2023-12-22T23:33:40.034Z,14.41
2023-12-22T23:36:18.040Z,14.42
2023-12-22T23:38:51.402Z,14.42
2023-12-22T23:41:20.127Z,14.42
2023-12-22T23:43:48.640Z,14.40
2023-12-22T23:46:16.871Z,14.37
2023-12-22T23:48:45.962Z,14.41
2023-12-22T23:51:15.675Z,14.41
2023-12-22T23:53:44.857Z,14.41
2023-12-22T23:56:13.635Z,14.41
2023-12-22T23:58:43.092Z,14.41
